Nearby METAR Reports

 

KMTN - Baltimore/Martin, Maryland, USA
Distance from station: SSE 8mi, 13km
Updated: Fri, 06-May-2016 11:45am EDT
Light rain, Overcast
Light rain, Overcast
 Wind from NNW
Wind: NNW 5 mph , 7 km/h
Temperature: 52°F , 11°C
Dew Point: 52°F , 11°C
Humidity: 100%
Barometer: 29.69 inHg , 1005.4 hPa
Summary: Light rain
Clouds: Overcast
Visibility: 7 miles , 11 km
Cloud details: Mostly cloudy 800 ft
Overcast 1300 ft
2016/05/06 15:45 KMTN 061545Z 33004KT 7SM -RA BKN008 OVC013 11/11 A2969
KDMH - Baltimore/Dwntwn, Maryland, USA
Distance from station: SW 12mi, 19km
Updated: Fri, 06-May-2016 11:54am EDT

 
Temperature: 50°F , 10°C
Dew Point: 46°F , 8°C
Humidity: 88%
Barometer: 29.68 inHg , 1005.1 hPa
2016/05/06 15:54 KDMH 061554Z AUTO 10/08 A2968 RMK AO1 SLP051 P0035 T01000083
 
KBWI - Balto/Wash Intl, Maryland, USA
Distance from station: SSW 20mi, 33km
Updated: Fri, 06-May-2016 12:04pm EDT
Light rain, Mist, Overcast
Light rain, Mist, Overcast
 Wind from NNE
Wind: NNE 7 mph , 11 km/h
Temperature: 50°F , 10°C
Wind Chill: 47°F , 8°C
Dew Point: 48°F , 9°C
Humidity: 94%
Barometer: 29.68 inHg , 1005.1 hPa
Summary: Light rain, Mist
Clouds: Overcast
Visibility: 3 miles , 5 km
Cloud details: Partly cloudy 900 ft
Mostly cloudy 1400 ft
Overcast 2700 ft
2016/05/06 16:04 KBWI 061604Z 03006KT 3SM -RA BR SCT009 BKN014 OVC027 10/09 A2968 RMK AO2 P0002 T01000089
KDMW - Carroll Cnty, Maryland, USA
Distance from station: WNW 30mi, 48km
Updated: Fri, 06-May-2016 12:35pm EDT
Rain, Mostly cloudy
Rain, Mostly cloudy
 Wind from NNE
Wind: NNE 5 mph , 7 km/h
Temperature: 50°F , 10°C
Wind Chill: 48°F , 9°C
Dew Point: 46°F , 8°C
Humidity: 88%
Barometer: 29.68 inHg , 1005.1 hPa
Summary: Rain
Clouds: Mostly cloudy
Visibility: 10 miles , 16 km
Cloud details: Partly cloudy 1300 ft
Mostly cloudy 2300 ft
Mostly cloudy 3500 ft
2016/05/06 16:35 KDMW 061635Z AUTO 02004KT 10SM RA SCT013 BKN023 BKN035 10/08 A2968 RMK AO2 P0014
 
KNAK - Annapolis/Naval, Maryland, USA
Distance from station: S 30mi, 48km
Updated: Fri, 06-May-2016 11:54am EDT
Light rain, Mist, Overcast
Light rain, Mist, Overcast
 Wind from NNE
Wind: NNE 6 mph , 9 km/h
Temperature: 50°F , 10°C
Wind Chill: 48°F , 9°C
Dew Point: 46°F , 8°C
Humidity: 88%
Barometer: 29.68 inHg , 1005.1 hPa
Summary: Light rain, Mist
Clouds: Overcast
Visibility: 3 miles , 5 km
Cloud details: Few Clouds 1500 ft
Mostly cloudy 4900 ft
Overcast 6000 ft
2016/05/06 15:54 KNAK 061554Z AUTO 02005KT 3SM -RA BR FEW015 BKN049 OVC060 10/08 A2968 RMK AO2 SLP051 T01000083 PNO
KW29 - Stevensville, Maryland, USA
Distance from station: SSE 31mi, 50km
Updated: Tue, 26-Apr-2016 2:56pm EDT
NOT Current

 
Temperature: 79°F , 26°C
Dew Point: 50°F , 10°C
Humidity: 37%
Barometer: 29.68 inHg , 1005.1 hPa
Visibility: 10 miles , 16 km
2016/04/26 18:56 KW29 261856Z 10SM 26/10 A2968 RMK AO1
 
KCGS - College Park, Maryland, USA
Distance from station: SW 38mi, 61km
Updated: Fri, 06-May-2016 12:35pm EDT
Overcast
Overcast
 Wind from NE
Wind: NE 6 mph , 9 km/h
Temperature: 50°F , 10°C
Wind Chill: 48°F , 9°C
Dew Point: 46°F , 8°C
Humidity: 88%
Barometer: 29.69 inHg , 1005.4 hPa
Clouds: Overcast
Visibility: 5 miles , 8 km
Cloud details: Partly cloudy 1500 ft
Mostly cloudy 2300 ft
Overcast 4400 ft
2016/05/06 16:35 KCGS 061635Z AUTO 04005KT 5SM SCT015 BKN023 OVC044 10/08 A2969 RMK AO1
KGAI - Gaithersburg, Maryland, USA
Distance from station: WSW 40mi, 65km
Updated: Fri, 06-May-2016 12:35pm EDT
Mostly cloudy
Mostly cloudy
 Wind from NE
Wind: NE 6 mph , 9 km/h
Temperature: 52°F , 11°C
Dew Point: 46°F , 8°C
Humidity: 82%
Barometer: 29.72 inHg , 1006.4 hPa
Clouds: Mostly cloudy
Visibility: 3 miles , 5 km
Cloud details: Few Clouds 800 ft
Partly cloudy 1600 ft
Mostly cloudy 2700 ft
2016/05/06 16:35 KGAI 061635Z AUTO 05005KT 3SM FEW008 SCT016 BKN027 11/08 A2972 RMK AO1 P0022
 
KTHV - York, Pennsylvania, USA
Distance from station: NNW 40mi, 65km
Updated: Fri, 06-May-2016 12:01pm EDT
Rain, Mist, Overcast
Rain, Mist, Overcast
 Wind from varies
Wind: varies 5 mph , 7 km/h
Temperature: 52°F , 11°C
Dew Point: 48°F , 9°C
Humidity: 88%
Barometer: 29.69 inHg , 1005.4 hPa
Summary: Rain, Mist
Clouds: Overcast
Visibility: 4 miles , 6 km
Cloud details: Few Clouds 1700 ft
Mostly cloudy 4500 ft
Overcast 5000 ft
2016/05/06 16:01 KTHV 061601Z AUTO VRB04KT 4SM RA BR FEW017 BKN045 OVC050 11/09 A2969 RMK AO2 P0001 T01060094
KFDK - Frederick, Maryland, USA
Distance from station: W 47mi, 75km
Updated: Fri, 06-May-2016 12:02pm EDT
Rain, Overcast
Rain, Overcast
 Wind from N
Wind: N 8 mph , 13 km/h
Temperature: 54°F , 12°C
Dew Point: 54°F , 12°C
Humidity: 100%
Barometer: 29.72 inHg , 1006.4 hPa
Summary: Rain
Clouds: Overcast
Visibility: 3 miles , 5 km
Cloud details: Partly cloudy 3500 ft
Mostly cloudy 4000 ft
Overcast 6000 ft
2016/05/06 16:02 KFDK 061602Z 36007KT 3SM RA SCT035 BKN040 OVC060 12/12 A2972
 
KESN - Easton/Newnam, Maryland, USA
Distance from station: SSE 48mi, 78km
Updated: Fri, 06-May-2016 11:50am EDT
Light rain, Overcast
Light rain, Overcast
 Wind from calm
Wind: Calm
Barometer: 29.70 inHg , 1005.8 hPa
Summary: Light rain
Clouds: Overcast
Visibility: 5 miles , 8 km
Cloud details: Mostly cloudy 800 ft
Mostly cloudy 1100 ft
Overcast 2600 ft
2016/05/06 15:50 KESN 061550Z 00000KT 5SM -RA BKN008 BKN011 OVC026 A2970
KDCA - Washington/Natl, Washington D.c., USA
Distance from station: SW 49mi, 79km
Updated: Fri, 06-May-2016 11:52am EDT
Light rain, Overcast
Light rain, Overcast
 Wind from NNW
Wind: NNW 13 mph , 20 km/h
Temperature: 55°F , 13°C
Dew Point: 52°F , 11°C
Humidity: 88%
Barometer: 29.69 inHg , 1005.4 hPa
Summary: Light rain
Clouds: Overcast
Visibility: 10 miles , 16 km
Cloud details: Few Clouds 1600 ft
Mostly cloudy 2800 ft
Overcast 6500 ft
2016/05/06 15:52 KDCA 061552Z 33011KT 10SM -RA FEW016 BKN028 OVC065 13/11 A2969 RMK AO2 SLP052 P0006 T01280111
 
KLNS - Lancaster, Pennsylvania, USA
Distance from station: N 49mi, 79km
Updated: Fri, 06-May-2016 11:53am EDT
Light rain, Overcast
Light rain, Overcast
 Wind from NE
Wind: NE 12 mph , 19 km/h
Temperature: 52°F , 11°C
Dew Point: 48°F , 9°C
Humidity: 88%
Barometer: 29.68 inHg , 1005.1 hPa
Summary: Light rain
Clouds: Overcast
Visibility: 8 miles , 13 km
Cloud details: Partly cloudy 1000 ft
Mostly cloudy 4600 ft
Overcast 6000 ft
2016/05/06 15:53 KLNS 061553Z 04010KT 8SM -RA SCT010 BKN046 OVC060 11/09 A2968 RMK AO2 SLP051 P0010 T01110094
KILG - Wilmington, Delaware, USA
Distance from station: ENE 50mi, 81km
Updated: Fri, 06-May-2016 12:41pm EDT
Light rain, Overcast
Light rain, Overcast
 Wind from NE
Wind: NE 14 mph , 22 km/h
Temperature: 52°F , 11°C
Dew Point: 48°F , 9°C
Humidity: 88%
Barometer: 29.65 inHg , 1004.1 hPa
Summary: Light rain
Clouds: Overcast
Visibility: 10 miles , 16 km
Cloud details: Few Clouds 900 ft
Mostly cloudy 1700 ft
Overcast 6500 ft
2016/05/06 16:41 KILG 061641Z 04012KT 10SM -RA FEW009 BKN017 OVC065 11/09 A2965 RMK AO2 P0008 T01060089 $